Time;durP1;ratioP1;P1;durP2;ratioP2;P2;SDS_P1;SDS_P2;PMS_P1;PMS_P2;Temp;Humidity;BMP_temperature;BMP_pressure;BME280_temperature;BME280_humidity;BME280_pressure;Samples;Min_cycle;Max_cycle;Signal;HPM_P1;HPM_P2
2021/09/15 02:47:18;;;;;;;22.67;17.70;;;17.50;97.10;;;;;;4902573;24;20069;-82
2021/09/15 02:50:02;;;;;;;21.40;16.00;;;17.40;97.30;;;;;;4735624;30;20039;-82
2021/09/15 02:52:47;;;;;;;24.40;18.20;;;17.40;98.00;;;;;;4736065;30;20039;-82
2021/09/15 02:55:43;;;;;;;17.45;15.63;;;17.40;98.00;;;;;;4712879;30;20038;-82
2021/09/15 02:58:27;;;;;;;19.23;15.60;;;17.30;97.80;;;;;;4712883;30;20112;-82
2021/09/15 03:01:02;;;;;;;20.90;16.35;;;17.30;97.70;;;;;;4699301;30;20042;-82
2021/09/15 03:03:43;;;;;;;18.10;14.98;;;17.30;97.60;;;;;;4700290;30;20018;-82
2021/09/15 03:06:19;;;;;;;20.57;15.40;;;17.40;97.40;;;;;;4712713;30;20053;-82
2021/09/15 03:08:57;;;;;;;24.05;15.55;;;17.30;97.20;;;;;;4699675;30;20287;-82
2021/09/15 03:11:23;;;;;;;23.63;15.45;;;17.30;97.20;;;;;;4698259;30;20361;-82
2021/09/15 03:13:49;;;;;;;23.60;16.45;;;17.30;97.30;;;;;;4697850;30;20041;-82
2021/09/15 03:16:21;;;;;;;19.73;16.25;;;17.30;97.40;;;;;;4699836;30;20033;-82
2021/09/15 03:18:47;;;;;;;17.35;14.90;;;17.30;97.40;;;;;;4711702;30;20089;-82
2021/09/15 03:21:13;;;;;;;21.00;15.25;;;17.30;97.30;;;;;;4698106;30;20033;-82
2021/09/15 03:23:39;;;;;;;22.05;15.55;;;17.30;97.30;;;;;;4697850;30;20070;-82
2021/09/15 03:26:05;;;;;;;19.38;16.10;;;17.30;97.30;;;;;;4697810;30;20042;-82
2021/09/15 03:28:31;;;;;;;20.58;15.68;;;17.30;97.40;;;;;;4697986;30;20037;-82
2021/09/15 03:30:57;;;;;;;19.95;15.98;;;17.20;97.40;;;;;;4699683;30;20040;-82
2021/09/15 03:33:23;;;;;;;24.05;16.27;;;17.20;97.30;;;;;;4733182;30;20037;-82
2021/09/15 03:35:49;;;;;;;18.13;15.20;;;17.20;97.30;;;;;;4717598;30;20028;-82
2021/09/15 03:38:16;;;;;;;23.33;16.88;;;17.20;97.30;;;;;;4718934;30;20047;-82
2021/09/15 03:40:42;;;;;;;23.60;15.53;;;17.20;97.60;;;;;;4718900;30;20335;-82
2021/09/15 03:43:08;;;;;;;33.37;16.40;;;17.20;97.20;;;;;;4718737;30;20032;-82
2021/09/15 03:45:34;;;;;;;20.17;16.25;;;17.10;97.20;;;;;;4715808;30;20108;-82
2021/09/15 03:48:01;;;;;;;19.73;16.27;;;17.10;97.30;;;;;;4701486;30;20033;-82
2021/09/15 03:50:26;;;;;;;23.27;15.45;;;17.10;97.30;;;;;;4701337;30;20032;-82
2021/09/15 03:52:52;;;;;;;18.52;15.90;;;17.10;97.30;;;;;;4701224;30;20029;-82
2021/09/15 03:55:18;;;;;;;19.88;15.73;;;17.00;97.20;;;;;;4700783;30;20033;-82
2021/09/15 03:57:44;;;;;;;20.40;16.65;;;17.00;97.20;;;;;;4701042;30;20033;-82
2021/09/15 04:00:13;;;;;;;22.00;16.45;;;17.00;97.20;;;;;;4701316;30;20053;-82
2021/09/15 04:02:39;;;;;;;27.77;18.63;;;17.00;97.10;;;;;;4715300;30;20045;-82
2021/09/15 04:05:08;;;;;;;26.48;17.48;;;16.90;97.30;;;;;;4701346;30;20074;-83
2021/09/15 04:07:35;;;;;;;19.23;16.57;;;16.90;97.30;;;;;;4715230;30;20037;-82
2021/09/15 04:10:01;;;;;;;26.97;18.87;;;16.90;97.30;;;;;;4700885;30;20274;-82
2021/09/15 04:12:27;;;;;;;24.43;17.23;;;16.90;97.50;;;;;;4700786;30;20598;-82
2021/09/15 04:14:53;;;;;;;21.17;16.08;;;16.90;97.60;;;;;;4714521;30;20071;-82
2021/09/15 04:17:19;;;;;;;25.13;17.50;;;16.80;97.50;;;;;;4700399;30;20037;-83
2021/09/15 04:19:45;;;;;;;25.92;19.52;;;16.80;97.40;;;;;;4701017;30;20025;-82
2021/09/15 04:22:18;;;;;;;37.33;18.67;;;16.80;97.40;;;;;;4700582;30;20071;-82
2021/09/15 04:31:12;;;;;;;30.75;18.90;;;16.80;97.50;;;;;;4700613;30;20280;-82
2021/09/15 04:33:03;;;;;;;24.70;18.02;;;16.80;97.50;;;;;;4714218;30;20036;-83
2021/09/15 04:35:29;;;;;;;26.42;18.90;;;16.70;97.70;;;;;;4714900;30;20092;-83
2021/09/15 04:37:55;;;;;;;27.23;20.27;;;16.70;97.70;;;;;;4700405;30;20037;-83
2021/09/15 04:40:22;;;;;;;21.42;17.50;;;16.70;97.70;;;;;;4700493;30;20052;-83
2021/09/15 04:42:48;;;;;;;26.10;20.92;;;16.70;97.80;;;;;;4700031;30;20033;-82
2021/09/15 04:45:14;;;;;;;29.58;19.40;;;16.70;97.80;;;;;;4708495;30;20036;-82
2021/09/15 04:47:41;;;;;;;26.25;19.55;;;16.70;98.00;;;;;;4731386;30;20049;-82
2021/09/15 04:50:08;;;;;;;24.38;18.67;;;16.70;97.90;;;;;;4731466;30;20224;-83
2021/09/15 04:52:35;;;;;;;26.83;20.70;;;16.70;98.20;;;;;;4732064;30;20024;-82
2021/09/15 04:55:02;;;;;;;27.63;22.20;;;16.70;97.90;;;;;;4730167;30;20048;-82
2021/09/15 04:57:28;;;;;;;26.45;18.42;;;16.80;97.90;;;;;;4724792;30;20036;-82
2021/09/15 04:59:54;;;;;;;23.10;18.95;;;16.80;98.00;;;;;;4717433;30;20081;-83
2021/09/15 05:02:21;;;;;;;27.63;20.15;;;16.80;98.00;;;;;;4731581;30;20031;-84
2021/09/15 05:04:47;;;;;;;27.92;20.30;;;16.80;98.10;;;;;;4731561;30;20343;-82
2021/09/15 05:07:21;;;;;;;23.33;18.08;;;16.90;98.00;;;;;;4731704;30;20025;-83
2021/09/15 05:09:47;;;;;;;28.40;20.67;;;16.90;97.90;;;;;;4731385;30;20028;-82
2021/09/15 05:12:13;;;;;;;27.25;20.05;;;17.00;98.00;;;;;;4731617;30;20068;-82
2021/09/15 05:14:39;;;;;;;25.50;18.67;;;17.10;97.90;;;;;;4731380;30;20028;-83
2021/09/15 05:17:06;;;;;;;45.07;21.53;;;17.10;97.80;;;;;;4716636;30;20033;-83
2021/09/15 05:19:33;;;;;;;24.70;20.50;;;17.20;97.70;;;;;;4731319;30;20034;-83
2021/09/15 05:22:00;;;;;;;28.13;19.53;;;17.30;97.80;;;;;;4730950;30;20263;-83
2021/09/15 05:24:26;;;;;;;26.25;19.50;;;17.30;97.90;;;;;;4731010;30;20251;-83
2021/09/15 05:26:53;;;;;;;;;;;17.40;97.80;;;;;;4731466;30;20104;-81
2021/09/15 05:29:19;;;;;;;32.77;20.83;;;17.40;97.70;;;;;;4713562;30;19957;-82
2021/09/15 05:31:44;;;;;;;21.80;18.27;;;17.50;97.70;;;;;;4735201;30;20025;-82
2021/09/15 05:34:10;;;;;;;24.65;17.83;;;17.60;97.40;;;;;;4731072;30;20025;-82
2021/09/15 05:36:37;;;;;;;29.63;20.17;;;17.70;97.20;;;;;;4731001;30;20059;-82
2021/09/15 05:39:06;;;;;;;28.98;19.20;;;17.80;97.20;;;;;;4731970;30;20295;-84
2021/09/15 05:41:33;;;;;;;31.50;21.25;;;17.90;97.20;;;;;;4733798;30;20028;-80
2021/09/15 05:44:00;;;;;;;27.95;20.50;;;18.00;97.30;;;;;;4718798;30;20348;-86
2021/09/15 05:46:27;;;;;;;35.28;22.73;;;18.10;97.10;;;;;;4729534;30;20141;-86
2021/09/15 05:48:53;;;;;;;34.53;21.80;;;18.20;97.20;;;;;;4715312;30;20080;-87
2021/09/15 05:51:21;;;;;;;34.08;22.15;;;18.30;97.60;;;;;;4716221;30;20024;-86
2021/09/15 05:53:48;;;;;;;44.53;21.67;;;18.40;97.90;;;;;;4715920;30;20102;-86
2021/09/15 05:56:14;;;;;;;37.97;23.15;;;18.40;98.00;;;;;;4730425;30;20040;-86
2021/09/15 05:58:41;;;;;;;41.38;23.55;;;18.50;97.80;;;;;;4716174;30;20115;-87
2021/09/15 06:01:08;;;;;;;;;;;18.60;97.90;;;;;;4733741;30;20064;-87
2021/09/15 06:03:36;;;;;;;48.75;25.00;;;18.70;98.00;;;;;;4733939;30;20359;-87
2021/09/15 06:06:28;;;;;;;35.63;23.23;;;18.80;97.70;;;;;;4707597;30;20033;-87
2021/09/15 06:08:55;;;;;;;28.95;21.58;;;18.90;97.40;;;;;;4674886;30;20336;-87
2021/09/15 06:11:21;;;;;;;34.10;21.05;;;18.90;97.20;;;;;;4695387;30;20065;-87
2021/09/15 06:13:49;;;;;;;33.50;21.33;;;19.10;96.80;;;;;;4681029;30;20030;-86
2021/09/15 06:16:18;;;;;;;28.92;20.40;;;19.20;96.50;;;;;;4674465;30;20056;-87
2021/09/15 06:18:45;;;;;;;34.55;20.27;;;19.30;96.00;;;;;;4687814;30;20041;-87
2021/09/15 06:21:20;;;;;;;38.63;20.25;;;19.40;95.60;;;;;;4696069;30;20352;-87
2021/09/15 06:24:06;;;;;;;36.17;18.30;;;19.40;95.60;;;;;;4687489;30;20056;-87
2021/09/15 06:26:33;;;;;;;38.88;17.88;;;19.50;95.30;;;;;;4690656;30;20026;-87
2021/09/15 06:28:58;;;;;;;27.88;17.05;;;19.50;95.00;;;;;;4684387;30;20061;-87
2021/09/15 06:31:29;;;;;;;35.28;17.98;;;19.70;95.00;;;;;;4689324;30;20050;-87
2021/09/15 06:33:59;;;;;;;29.08;16.25;;;19.70;94.90;;;;;;4704841;30;20082;-86
2021/09/15 06:36:24;;;;;;;35.92;16.83;;;19.80;94.40;;;;;;4683683;30;20042;-86
2021/09/15 06:38:50;;;;;;;31.42;15.98;;;19.90;94.10;;;;;;4690654;30;20048;-86
2021/09/15 06:41:17;;;;;;;31.23;17.40;;;20.00;94.00;;;;;;4689057;30;20038;-87
2021/09/15 06:43:46;;;;;;;20.73;14.13;;;20.10;93.90;;;;;;4708285;30;20090;-87
2021/09/15 06:46:12;;;;;;;23.65;13.00;;;20.10;93.80;;;;;;4732677;30;20056;-87
2021/09/15 06:48:38;;;;;;;20.00;12.75;;;20.20;93.00;;;;;;4733252;30;20037;-86
2021/09/15 06:51:04;;;;;;;23.67;12.77;;;20.20;92.80;;;;;;4729437;30;20037;-86
2021/09/15 06:53:30;;;;;;;21.58;12.52;;;20.40;92.70;;;;;;4715445;30;20430;-86
2021/09/15 06:55:56;;;;;;;23.85;13.38;;;20.60;92.10;;;;;;4700717;30;20045;-87
2021/09/15 06:58:22;;;;;;;24.58;13.77;;;20.70;92.20;;;;;;4715481;30;20044;-86
2021/09/15 07:00:48;;;;;;;25.92;14.05;;;20.70;91.80;;;;;;4728717;30;20320;-86
2021/09/15 07:03:14;;;;;;;18.50;13.98;;;20.70;92.20;;;;;;4715287;30;20056;-86
2021/09/15 07:05:40;;;;;;;21.67;12.25;;;20.90;91.70;;;;;;4717320;30;20040;-87
2021/09/15 07:08:06;;;;;;;22.08;13.32;;;21.00;91.20;;;;;;4732033;30;20033;-86
2021/09/15 07:10:35;;;;;;;22.83;12.77;;;21.00;91.20;;;;;;4716601;30;20083;-86
2021/09/15 07:13:01;;;;;;;17.70;12.60;;;21.20;91.20;;;;;;4717672;30;20040;-86
2021/09/15 07:15:26;;;;;;;20.38;12.52;;;21.30;90.80;;;;;;4732716;30;20064;-86
2021/09/15 07:17:53;;;;;;;18.60;12.18;;;21.40;90.70;;;;;;4732567;30;20032;-86
2021/09/15 07:20:20;;;;;;;19.85;12.63;;;21.50;90.30;;;;;;4717919;30;20033;-86
2021/09/15 07:22:46;;;;;;;13.87;12.03;;;21.50;90.50;;;;;;4718176;30;20043;-86
2021/09/15 07:25:12;;;;;;;23.80;11.97;;;21.60;90.20;;;;;;4732108;30;20040;-86
2021/09/15 07:27:39;;;;;;;14.68;12.02;;;21.80;88.30;;;;;;4732116;30;20291;-86
2021/09/15 07:30:06;;;;;;;20.23;11.75;;;21.80;88.60;;;;;;4727739;30;20091;-85
2021/09/15 07:32:32;;;;;;;;;;;21.90;88.20;;;;;;4713537;30;20037;-86
2021/09/15 07:34:58;;;;;;;24.73;11.90;;;22.00;88.50;;;;;;4713189;30;20022;-86
2021/09/15 07:37:23;;;;;;;22.33;11.07;;;22.20;88.00;;;;;;4698595;30;20111;-86
2021/09/15 07:39:49;;;;;;;16.50;11.38;;;22.30;86.70;;;;;;4713179;30;20155;-86
2021/09/15 07:42:15;;;;;;;27.63;12.65;;;22.40;85.10;;;;;;4698786;30;20036;-86
2021/09/15 07:44:41;;;;;;;16.42;11.02;;;22.50;85.40;;;;;;4698770;30;20112;-86
2021/09/15 07:47:07;;;;;;;23.02;11.63;;;22.60;84.50;;;;;;4698487;30;20063;-86
2021/09/15 07:49:32;;;;;;;19.45;11.25;;;22.70;85.90;;;;;;4697946;30;20073;-86
2021/09/15 07:51:58;;;;;;;24.30;12.85;;;22.90;84.60;;;;;;4713048;30;20029;-86
2021/09/15 07:54:24;;;;;;;19.70;12.95;;;23.10;82.40;;;;;;4713139;30;20037;-86
2021/09/15 07:56:50;;;;;;;20.90;12.57;;;23.20;82.70;;;;;;4713295;30;20044;-86
2021/09/15 07:59:16;;;;;;;23.00;11.65;;;23.30;80.40;;;;;;4700228;30;20045;-86
2021/09/15 08:01:41;;;;;;;23.20;13.00;;;23.40;80.60;;;;;;4713878;30;20044;-85
2021/09/15 08:04:07;;;;;;;16.08;11.88;;;23.50;80.20;;;;;;4702470;30;20055;-86
2021/09/15 08:06:33;;;;;;;16.92;11.95;;;23.60;78.90;;;;;;4714448;30;20320;-85
2021/09/15 08:08:59;;;;;;;19.35;11.55;;;23.70;78.40;;;;;;4712868;30;20046;-85
2021/09/15 08:11:24;;;;;;;25.75;12.15;;;23.80;79.20;;;;;;4717807;30;20036;-85
2021/09/15 08:13:52;;;;;;;20.17;12.27;;;23.90;80.00;;;;;;4732132;30;20109;-85
2021/09/15 08:16:18;;;;;;;17.08;11.85;;;24.10;78.30;;;;;;4731832;30;20059;-85
2021/09/15 08:18:44;;;;;;;17.80;12.38;;;24.20;77.60;;;;;;4748390;30;20033;-85
2021/09/15 08:21:09;;;;;;;16.70;12.05;;;24.30;77.40;;;;;;4717395;30;20024;-85
2021/09/15 08:23:35;;;;;;;19.45;12.77;;;24.40;77.20;;;;;;4717428;30;20037;-85
2021/09/15 08:26:01;;;;;;;26.92;12.68;;;24.60;78.20;;;;;;4717624;30;20036;-85
2021/09/15 08:28:36;;;;;;;19.50;11.55;;;24.90;76.60;;;;;;4717002;30;20043;-85
2021/09/15 08:31:24;;;;;;;;;;;;;;;;;;;;;
2021/09/15 08:34:18;;;;;;;18.20;11.88;;;25.00;73.50;;;;;;4739194;30;20037;-85
2021/09/15 08:36:48;;;;;;;16.48;10.98;;;25.20;73.30;;;;;;4732276;30;20087;-85
2021/09/15 08:39:15;;;;;;;16.77;11.85;;;25.50;72.50;;;;;;4744468;30;20355;-85
2021/09/15 08:41:42;;;;;;;17.88;11.65;;;25.60;72.40;;;;;;4729797;30;20024;-85
2021/09/15 08:44:08;;;;;;;25.25;11.18;;;25.80;72.30;;;;;;4700317;30;20036;-85
2021/09/15 08:46:34;;;;;;;14.95;11.55;;;25.80;70.00;;;;;;4704438;30;20121;-85
2021/09/15 08:49:00;;;;;;;18.10;12.30;;;25.80;72.80;;;;;;4732327;30;20063;-84
2021/09/15 08:51:26;;;;;;;23.37;12.03;;;25.90;69.40;;;;;;4718256;30;20048;-84
2021/09/15 08:53:54;;;;;;;16.30;10.32;;;25.80;69.40;;;;;;4747082;30;20040;-85
2021/09/15 08:56:21;;;;;;;19.17;11.07;;;25.70;69.90;;;;;;4736689;30;20035;-85
2021/09/15 08:58:47;;;;;;;24.88;10.05;;;25.80;68.70;;;;;;4729598;30;20032;-85
2021/09/15 09:01:16;;;;;;;;;;;25.80;69.50;;;;;;4715377;30;20053;-84
2021/09/15 09:03:42;;;;;;;13.75;9.27;;;25.90;70.50;;;;;;4732810;30;19914;-84
2021/09/15 09:06:18;;;;;;;21.40;9.95;;;26.00;71.00;;;;;;4732797;30;20051;-84
2021/09/15 09:08:45;;;;;;;15.63;9.37;;;26.20;69.40;;;;;;4706891;30;20236;-84
2021/09/15 09:11:14;;;;;;;13.27;8.70;;;26.30;68.50;;;;;;4716224;30;20025;-84
2021/09/15 09:13:52;;;;;;;16.35;9.32;;;26.40;67.50;;;;;;4729528;30;20094;-84
2021/09/15 09:16:21;;;;;;;24.42;10.95;;;26.50;67.40;;;;;;4717588;30;20056;-84
2021/09/15 09:18:58;;;;;;;17.15;9.73;;;26.50;66.40;;;;;;4725474;30;20036;-85
2021/09/15 09:21:29;;;;;;;15.98;10.25;;;26.60;67.20;;;;;;4721546;30;20050;-79
2021/09/15 09:23:57;;;;;;;23.50;9.85;;;26.60;66.10;;;;;;4739324;30;20058;-82
2021/09/15 09:26:23;;;;;;;14.70;9.02;;;26.60;66.50;;;;;;4724867;30;20045;-82
2021/09/15 09:28:50;;;;;;;25.77;9.85;;;26.60;67.50;;;;;;4715965;30;20048;-81
2021/09/15 09:31:17;;;;;;;15.95;10.77;;;26.70;66.20;;;;;;4716721;30;20040;-82
2021/09/15 09:34:03;;;;;;;17.90;8.77;;;26.60;65.80;;;;;;4716338;30;20067;-81
2021/09/15 09:36:29;;;;;;;31.23;11.15;;;26.60;66.90;;;;;;4730843;30;20037;-81
2021/09/15 09:38:55;;;;;;;23.27;9.27;;;26.70;66.00;;;;;;4716204;30;20043;-82
2021/09/15 09:41:22;;;;;;;20.20;11.23;;;26.70;67.10;;;;;;4716465;30;20044;-81
2021/09/15 09:43:56;;;;;;;21.95;9.60;;;26.70;65.80;;;;;;4717017;30;20072;-81
2021/09/15 09:46:35;;;;;;;25.80;9.40;;;26.60;66.60;;;;;;4730463;30;20406;-81
2021/09/15 09:49:10;;;;;;;26.50;9.75;;;26.80;66.70;;;;;;4728411;30;20059;-81
2021/09/15 09:51:45;;;;;;;18.15;8.75;;;26.90;65.80;;;;;;4730885;30;20036;-81
2021/09/15 09:54:14;;;;;;;12.85;8.38;;;27.00;64.80;;;;;;4716823;30;20091;-81
2021/09/15 09:56:42;;;;;;;16.92;8.65;;;27.10;65.40;;;;;;4713335;30;20037;-81
2021/09/15 09:59:10;;;;;;;17.33;9.00;;;27.30;65.00;;;;;;4713512;30;20083;-81
2021/09/15 10:01:50;;;;;;;19.75;9.57;;;27.30;64.90;;;;;;4713815;30;20041;-81
2021/09/15 10:04:17;;;;;;;16.30;7.43;;;27.50;65.60;;;;;;4701886;30;20044;-81
2021/09/15 10:06:44;;;;;;;19.05;8.70;;;27.70;64.40;;;;;;4728699;30;20025;-81
2021/09/15 10:09:11;;;;;;;15.60;8.90;;;27.80;62.00;;;;;;4713377;30;20070;-81
2021/09/15 10:11:37;;;;;;;;;;;27.80;61.30;;;;;;4714139;30;20110;-81
2021/09/15 10:14:04;;;;;;;;;;;27.80;62.70;;;;;;4728203;30;19918;-81
2021/09/15 10:16:33;;;;;;;13.18;8.48;;;27.90;62.20;;;;;;4727886;30;19918;-81
2021/09/15 10:19:04;;;;;;;12.30;7.78;;;27.90;61.50;;;;;;4713033;30;20037;-81
2021/09/15 10:21:32;;;;;;;15.88;8.60;;;27.90;61.90;;;;;;4712835;30;20045;-81
2021/09/15 10:23:58;;;;;;;17.52;8.32;;;27.90;62.10;;;;;;4712960;30;20037;-81
2021/09/15 10:26:28;;;;;;;21.88;8.10;;;27.90;61.20;;;;;;4713023;30;20336;-81
2021/09/15 10:29:17;;;;;;;12.68;7.95;;;27.90;60.50;;;;;;4712738;30;20045;-80
2021/09/15 10:32:15;;;;;;;20.60;7.20;;;27.90;61.30;;;;;;4714391;30;20037;-80
2021/09/15 10:34:41;;;;;;;24.80;7.63;;;27.80;62.90;;;;;;4663664;30;20046;-80
2021/09/15 10:37:12;;;;;;;13.10;7.37;;;27.90;62.90;;;;;;4677697;30;20341;-80
2021/09/15 10:40:00;;;;;;;23.98;8.18;;;27.90;61.20;;;;;;4663521;30;20388;-80
2021/09/15 10:42:35;;;;;;;12.20;7.95;;;27.90;60.70;;;;;;4665708;30;20043;-80
2021/09/15 10:45:10;;;;;;;16.42;7.53;;;28.10;63.80;;;;;;4675071;30;20051;-80
2021/09/15 10:47:37;;;;;;;9.05;6.72;;;28.40;61.00;;;;;;4669374;30;20069;-80
2021/09/15 10:50:03;;;;;;;15.45;7.07;;;28.70;58.60;;;;;;4680366;30;20042;-80
2021/09/15 10:52:35;;;;;;;13.15;6.97;;;28.80;58.20;;;;;;4680700;30;20057;-80
2021/09/15 10:55:01;;;;;;;17.00;7.28;;;29.00;59.50;;;;;;4680353;30;20038;-80
2021/09/15 10:57:27;;;;;;;16.92;7.97;;;29.30;60.00;;;;;;4675657;30;20210;-80
2021/09/15 10:59:58;;;;;;;19.77;7.28;;;29.60;58.70;;;;;;4666521;30;20040;-80
2021/09/15 11:02:27;;;;;;;12.80;6.90;;;29.60;56.80;;;;;;4680405;30;20042;-80
2021/09/15 11:04:55;;;;;;;13.40;7.00;;;29.50;56.80;;;;;;4694940;30;20038;-80
2021/09/15 11:07:48;;;;;;;12.73;6.68;;;29.50;56.40;;;;;;4680404;30;20038;-80
2021/09/15 11:12:59;;;;;;;11.15;7.15;;;29.60;58.70;;;;;;4747339;30;20045;-81
2021/09/15 11:15:43;;;;;;;;;;;29.80;58.30;;;;;;4733279;30;20040;-80
2021/09/15 11:18:35;;;;;;;18.67;6.75;;;29.90;55.20;;;;;;4715479;30;20199;-80
2021/09/15 11:21:05;;;;;;;13.35;7.00;;;29.80;57.80;;;;;;4666026;30;20049;-80
2021/09/15 11:23:32;;;;;;;14.60;7.65;;;29.50;56.70;;;;;;4680272;30;20152;-80
2021/09/15 11:25:59;;;;;;;21.90;7.28;;;29.30;55.90;;;;;;4679994;30;20046;-81
2021/09/15 11:28:25;;;;;;;14.85;6.97;;;29.00;58.50;;;;;;4694233;30;20286;-80
2021/09/15 11:30:51;;;;;;;18.38;7.15;;;29.00;58.30;;;;;;4694302;30;20034;-80
2021/09/15 11:33:27;;;;;;;13.65;6.82;;;29.00;58.20;;;;;;4688963;30;20030;-80
2021/09/15 11:35:58;;;;;;;13.25;6.65;;;29.00;58.10;;;;;;4697177;30;20044;-80
2021/09/15 11:38:26;;;;;;;21.05;7.10;;;29.00;57.40;;;;;;4679971;30;20396;-80
2021/09/15 11:41:02;;;;;;;20.55;6.55;;;29.00;57.40;;;;;;4679606;30;20033;-80
2021/09/15 11:43:28;;;;;;;10.68;6.57;;;29.10;58.50;;;;;;4679762;30;20044;-80
2021/09/15 11:45:54;;;;;;;16.20;6.73;;;29.20;58.40;;;;;;4679289;30;20074;-80
2021/09/15 11:48:27;;;;;;;16.60;6.57;;;29.30;57.80;;;;;;4665437;30;20305;-80
2021/09/15 11:50:53;;;;;;;14.90;6.20;;;29.40;57.30;;;;;;4665210;30;20275;-80
2021/09/15 11:53:20;;;;;;;15.18;6.70;;;29.40;57.90;;;;;;4679545;30;20061;-80
2021/09/15 11:56:01;;;;;;;23.58;6.75;;;29.50;56.20;;;;;;4679170;30;20083;-80
2021/09/15 11:58:27;;;;;;;11.23;6.50;;;29.70;56.30;;;;;;4721308;30;20049;-81
2021/09/15 12:00:53;;;;;;;20.13;7.57;;;29.70;56.80;;;;;;4699369;30;20102;-80
2021/09/15 12:03:25;;;;;;;14.73;6.77;;;29.80;57.40;;;;;;4714545;30;20045;-80
2021/09/15 12:05:52;;;;;;;24.58;6.90;;;29.80;56.00;;;;;;4699802;30;20284;-80
2021/09/15 12:08:18;;;;;;;17.38;6.43;;;30.00;56.60;;;;;;4700165;30;20040;-80
2021/09/15 12:10:46;;;;;;;26.13;6.90;;;30.00;56.50;;;;;;4731542;30;20100;-80
2021/09/15 12:13:12;;;;;;;17.80;6.30;;;30.00;56.40;;;;;;4717011;30;20033;-81
2021/09/15 12:15:50;;;;;;;18.00;6.87;;;30.00;54.90;;;;;;4744634;30;20112;-81
2021/09/15 12:18:21;;;;;;;20.63;7.35;;;30.00;55.60;;;;;;4725722;30;20044;-80
2021/09/15 12:20:51;;;;;;;16.50;6.70;;;29.90;54.60;;;;;;4731074;30;20041;-81
2021/09/15 12:23:31;;;;;;;16.55;6.93;;;29.90;55.10;;;;;;4716495;30;20249;-80
2021/09/15 12:26:01;;;;;;;24.52;8.20;;;29.90;55.90;;;;;;4731191;30;20060;-80
2021/09/15 12:28:30;;;;;;;16.85;6.95;;;29.80;56.70;;;;;;4730934;30;20328;-78
2021/09/15 12:30:57;;;;;;;16.98;7.30;;;29.90;55.90;;;;;;4730788;30;20266;-79
2021/09/15 12:33:32;;;;;;;20.17;7.65;;;30.10;55.80;;;;;;4730763;30;20050;-79
2021/09/15 12:36:08;;;;;;;31.15;8.10;;;30.20;55.40;;;;;;4716041;30;20079;-79
2021/09/15 12:38:59;;;;;;;15.65;6.88;;;30.20;54.90;;;;;;4738056;30;20100;-79
2021/09/15 12:41:50;;;;;;;17.27;6.20;;;30.30;55.00;;;;;;4723169;30;20345;-79
2021/09/15 12:44:16;;;;;;;22.65;6.88;;;30.40;54.40;;;;;;4746425;30;20065;-79
2021/09/15 12:46:46;;;;;;;21.57;8.03;;;30.50;56.00;;;;;;4715462;30;20064;-79
2021/09/15 12:49:12;;;;;;;16.17;6.25;;;30.60;55.10;;;;;;4730219;30;20316;-79
2021/09/15 12:51:38;;;;;;;22.63;7.00;;;30.70;54.20;;;;;;4745675;30;20025;-79
2021/09/15 12:54:05;;;;;;;20.67;6.90;;;30.80;54.20;;;;;;4715554;30;20105;-79
2021/09/15 12:56:36;;;;;;;26.58;7.50;;;30.80;53.50;;;;;;4715461;30;20111;-79
2021/09/15 12:59:29;;;;;;;18.83;6.57;;;30.80;53.20;;;;;;4730127;30;20033;-79
2021/09/15 13:02:24;;;;;;;14.65;7.30;;;30.70;53.40;;;;;;4698448;30;20072;-79
2021/09/15 13:04:51;;;;;;;8.65;5.68;;;30.60;53.10;;;;;;4716805;30;20061;-79
2021/09/15 13:07:18;;;;;;;18.38;6.80;;;30.50;53.70;;;;;;4722761;30;20050;-79
2021/09/15 13:09:46;;;;;;;;;;;30.50;52.80;;;;;;4729966;30;20349;-79
2021/09/15 13:12:17;;;;;;;15.90;6.50;;;30.60;54.20;;;;;;4730053;30;19917;-80
2021/09/15 13:14:49;;;;;;;20.20;7.20;;;30.70;54.80;;;;;;4715822;30;20040;-81
2021/09/15 13:17:16;;;;;;;13.85;6.22;;;30.80;53.10;;;;;;4715733;30;20039;-80
2021/09/15 13:19:42;;;;;;;15.23;7.07;;;30.90;52.40;;;;;;4730121;30;20232;-80
2021/09/15 13:22:09;;;;;;;15.13;6.43;;;31.10;52.60;;;;;;4715492;30;20103;-80
2021/09/15 13:24:35;;;;;;;17.75;6.50;;;31.10;51.90;;;;;;4730019;30;20295;-80
2021/09/15 13:27:02;;;;;;;20.33;6.87;;;31.10;51.50;;;;;;4712381;30;20051;-80
2021/09/15 13:29:27;;;;;;;12.85;6.15;;;31.10;51.50;;;;;;4707913;30;20318;-80
2021/09/15 13:31:54;;;;;;;11.47;6.40;;;31.10;53.00;;;;;;4729431;30;20336;-81
2021/09/15 13:34:20;;;;;;;13.50;6.82;;;31.20;52.00;;;;;;4728947;30;20059;-80
2021/09/15 13:36:46;;;;;;;15.63;6.63;;;31.10;51.80;;;;;;4729747;30;20037;-80
2021/09/15 13:39:12;;;;;;;17.43;6.50;;;30.90;51.70;;;;;;4715292;30;20029;-80
2021/09/15 13:41:38;;;;;;;9.07;6.22;;;30.80;51.50;;;;;;4728660;30;20040;-81
2021/09/15 13:44:05;;;;;;;12.43;6.90;;;30.60;53.20;;;;;;4729730;30;20039;-81
2021/09/15 13:46:31;;;;;;;17.85;7.75;;;30.40;52.50;;;;;;4714951;30;20052;-82
2021/09/15 13:48:57;;;;;;;18.23;7.30;;;30.30;52.60;;;;;;4742930;30;20078;-80
2021/09/15 13:51:23;;;;;;;14.33;7.00;;;30.20;53.20;;;;;;4697967;30;20068;-79
2021/09/15 13:53:49;;;;;;;16.80;7.47;;;30.20;54.20;;;;;;4712630;30;20341;-79
2021/09/15 13:56:15;;;;;;;18.80;8.60;;;30.20;53.50;;;;;;4712288;30;20029;-79
2021/09/15 13:58:40;;;;;;;19.07;7.63;;;30.20;54.10;;;;;;4712361;30;20040;-79
2021/09/15 14:01:06;;;;;;;15.27;7.37;;;30.30;54.30;;;;;;4712263;30;20096;-79
2021/09/15 14:03:32;;;;;;;14.63;7.07;;;30.50;54.00;;;;;;4704545;30;20045;-80
2021/09/15 14:05:58;;;;;;;14.47;7.43;;;30.70;53.40;;;;;;4714852;30;20068;-79
2021/09/15 14:08:24;;;;;;;10.27;6.77;;;30.70;52.50;;;;;;4729572;30;20052;-80
2021/09/15 14:10:50;;;;;;;15.53;6.93;;;30.70;52.10;;;;;;4729561;30;20290;-80
2021/09/15 14:13:15;;;;;;;23.90;7.30;;;30.80;52.90;;;;;;4714503;30;20087;-80
2021/09/15 14:15:41;;;;;;;13.97;7.57;;;30.70;52.30;;;;;;4715274;30;20055;-81
2021/09/15 14:18:08;;;;;;;13.75;6.18;;;30.60;52.70;;;;;;4724776;30;20037;-81
2021/09/15 14:20:34;;;;;;;12.05;6.70;;;30.50;51.60;;;;;;4742637;30;20170;-79
2021/09/15 14:22:59;;;;;;;12.70;6.60;;;30.50;52.10;;;;;;4732871;30;20028;-80
2021/09/15 14:25:25;;;;;;;12.10;6.93;;;30.40;52.10;;;;;;4725847;30;20049;-78
2021/09/15 14:27:51;;;;;;;11.17;7.57;;;30.30;52.60;;;;;;4717422;30;20045;-78
2021/09/15 14:30:17;;;;;;;14.00;8.00;;;30.30;52.10;;;;;;4732190;30;20032;-77
2021/09/15 14:32:44;;;;;;;10.47;6.80;;;30.20;52.20;;;;;;4730301;30;20060;-80
2021/09/15 14:35:12;;;;;;;17.02;7.63;;;30.20;53.50;;;;;;4729775;30;20043;-81
2021/09/15 14:37:38;;;;;;;10.57;6.53;;;30.20;54.00;;;;;;4732102;30;20020;-80
2021/09/15 14:40:05;;;;;;;13.97;7.50;;;30.20;53.70;;;;;;4718980;30;20033;-79
2021/09/15 14:42:31;;;;;;;12.93;7.10;;;30.20;53.00;;;;;;4718003;30;20044;-80
2021/09/15 14:44:57;;;;;;;20.20;7.83;;;30.10;53.40;;;;;;4732934;30;20039;-80
2021/09/15 14:47:23;;;;;;;10.20;7.20;;;29.90;53.30;;;;;;4732220;30;20062;-79
2021/09/15 14:49:48;;;;;;;12.10;6.70;;;29.80;54.10;;;;;;4717339;30;20051;-80
2021/09/15 14:52:15;;;;;;;15.90;8.02;;;29.80;53.70;;;;;;4718362;30;20079;-80
2021/09/15 14:54:40;;;;;;;13.23;7.00;;;29.70;54.70;;;;;;4732982;30;20067;-80
2021/09/15 14:57:11;;;;;;;23.37;7.97;;;29.60;54.50;;;;;;4753040;30;20051;-81
2021/09/15 14:59:38;;;;;;;15.20;6.65;;;29.60;56.20;;;;;;4719810;30;20051;-80
2021/09/15 15:02:04;;;;;;;;;;;29.60;55.10;;;;;;4733675;30;20095;-80
2021/09/15 15:04:30;;;;;;;18.77;7.72;;;29.50;55.30;;;;;;4733431;30;19911;-81
2021/09/15 15:06:56;;;;;;;15.30;7.10;;;29.60;55.30;;;;;;4734128;30;20332;-81
2021/09/15 15:09:22;;;;;;;16.60;8.13;;;29.60;56.30;;;;;;4718054;30;20063;-81
2021/09/15 15:11:48;;;;;;;16.63;7.73;;;29.60;55.00;;;;;;4732983;30;20121;-80
2021/09/15 15:14:14;;;;;;;12.80;7.22;;;29.50;55.40;;;;;;4717481;30;20036;-79
2021/09/15 15:16:39;;;;;;;14.73;7.73;;;29.50;55.60;;;;;;4732687;30;20059;-79
2021/09/15 15:19:08;;;;;;;17.77;8.00;;;29.50;55.60;;;;;;4717562;30;20041;-80
2021/09/15 15:21:34;;;;;;;15.95;7.70;;;29.60;55.40;;;;;;4717817;30;20040;-79
2021/09/15 15:24:00;;;;;;;16.47;7.87;;;29.60;55.60;;;;;;4732505;30;20355;-79
2021/09/15 15:26:29;;;;;;;14.85;6.78;;;29.60;55.60;;;;;;4732704;30;20040;-80
2021/09/15 15:28:55;;;;;;;12.52;7.63;;;29.50;56.30;;;;;;4718146;30;20024;-79
2021/09/15 15:31:22;;;;;;;13.90;7.57;;;29.50;56.10;;;;;;4731356;30;20037;-80
2021/09/15 15:33:47;;;;;;;14.15;8.15;;;29.50;55.90;;;;;;4731532;30;20059;-80
2021/09/15 15:36:13;;;;;;;14.60;7.03;;;29.50;56.50;;;;;;4714994;30;20233;-80
2021/09/15 15:38:42;;;;;;;16.30;8.03;;;29.40;57.00;;;;;;4714562;30;20037;-80